Accueil
METAR-TAF:

METAR-TAF

Aéroports :

Guilin, Chine

Aéroport international de Guilin Liangjiang

latitude: 25-20N, longitude: 110-18E, altitude: 166 m

Observation

Le bulletin a été fait il y a 11 minutes, à 21:00 UTC
Vent 4 kt de direction variable
Température 17°C
Humidité 82%
Pression 1014 hPa
Visibilité: 5000 m
Nuages épars à une hauteur de 4000 ft
Ciel couvert à une hauteur de 6600 ft
brume

METAR: ZGKL 242100Z VRB02MPS 5000 BR SCT040 OVC066 17/14 Q1014 NOSIG

Heure: 05:11 (21:11 UTC)

Prévision

Le bulletin a été fait il y a 5 heures et 58 minutes, à 15:13 UTC
Prévision valable du 24 à 18 UTC au 25 à 18 UTC
Vent 8 kt de nord-est
Visibilité 10 km ou plus
Nuages épars à une hauteur de 3000 ft
Nuages fragmentés à une hauteur de 5000 ft

TAF: ZGKL 241513Z 2418/2518 05004MPS 9999 SCT030 BKN050 TX26/2508Z TN15/2423Z

Observations et prévisions météorologiques de plus de 4000 aéroports (messages METAR et TAF).

Les stations disponibles sont représentées par des disques jaunes et rouges sur la carte.

Passer la souris dessus pour voir le nom de la station.

Cliquer dessus pour voir les observations et prévisions météorologiques.

Pour changer de carte: cliquez sur les boutons verts avec une croix noire pour zoomer, sur le bouton vert avec un tiret pour effectuer un zoom arrière, ou sur les flèches vertes pour les cartes adjacentes.


METAR-TAF: